createdAt,value
2022-10-14T00:01:21.610Z,101285.41
2022-10-14T00:03:49.651Z,101288.13
2022-10-14T00:06:29.913Z,101286.13
2022-10-14T00:09:01.217Z,101291.66
2022-10-14T00:11:30.699Z,101290.66
2022-10-14T00:14:01.351Z,101293.50
2022-10-14T00:16:34.381Z,101288.13
2022-10-14T00:19:02.034Z,101290.81
2022-10-14T00:21:30.440Z,101283.56
2022-10-14T00:23:58.268Z,101281.88
2022-10-14T00:26:34.708Z,101281.88
2022-10-14T00:29:04.098Z,101280.19
2022-10-14T00:31:32.433Z,101274.78
2022-10-14T00:34:00.143Z,101283.72
2022-10-14T00:36:27.671Z,101280.19
2022-10-14T00:38:55.648Z,101279.28
2022-10-14T00:41:28.653Z,101275.75
2022-10-14T00:43:58.373Z,101275.75
2022-10-14T00:46:28.402Z,101286.41
2022-10-14T00:49:06.820Z,101281.16
2022-10-14T00:51:35.900Z,101274.91
2022-10-14T00:54:04.217Z,101279.28
2022-10-14T00:56:32.111Z,101275.75
2022-10-14T00:59:03.546Z,101283.00
2022-10-14T01:01:30.855Z,101275.06
2022-10-14T01:03:58.096Z,101274.91
2022-10-14T01:06:53.368Z,101270.50
2022-10-14T01:09:28.659Z,101270.50
2022-10-14T01:12:30.297Z,101267.81
2022-10-14T01:15:15.221Z,101275.91
2022-10-14T01:18:27.116Z,101262.56
2022-10-14T01:21:13.020Z,101257.19
2022-10-14T01:24:16.577Z,101257.19
2022-10-14T01:27:14.535Z,101260.72
2022-10-14T01:30:00.300Z,101253.59
2022-10-14T01:32:48.941Z,101254.47
2022-10-14T01:35:23.265Z,101248.22
2022-10-14T01:38:01.707Z,101241.13
2022-10-14T01:40:39.525Z,101242.97
2022-10-14T01:43:07.816Z,101239.28
2022-10-14T01:45:37.899Z,101242.97
2022-10-14T01:48:07.006Z,101233.88
2022-10-14T01:50:36.680Z,101233.03
2022-10-14T01:53:12.581Z,101225.94
2022-10-14T01:55:46.085Z,101230.47
2022-10-14T01:58:14.625Z,101229.63
2022-10-14T02:00:42.011Z,101233.19
2022-10-14T02:03:11.667Z,101235.03
2022-10-14T02:05:45.108Z,101235.88
2022-10-14T02:08:36.354Z,101235.03
2022-10-14T02:11:18.138Z,101220.66
2022-10-14T02:14:17.704Z,101218.97
2022-10-14T02:17:09.784Z,101214.56
2022-10-14T02:19:50.075Z,101212.72
2022-10-14T02:22:49.447Z,101209.03
2022-10-14T02:25:23.517Z,101209.19
2022-10-14T02:27:53.874Z,101210.88
2022-10-14T02:30:21.966Z,101213.56
2022-10-14T02:32:59.696Z,101211.88
2022-10-14T02:35:30.514Z,101212.88
2022-10-14T02:37:58.955Z,101217.13
2022-10-14T02:40:35.952Z,101213.72
2022-10-14T02:43:03.368Z,101209.34
2022-10-14T02:45:34.582Z,101202.94
2022-10-14T02:48:02.003Z,101202.09
2022-10-14T02:50:30.039Z,101202.94
2022-10-14T02:52:57.341Z,101196.69
2022-10-14T02:55:24.642Z,101194.97
2022-10-14T02:57:51.944Z,101196.81
2022-10-14T03:00:20.196Z,101200.53
2022-10-14T03:02:47.505Z,101199.53
2022-10-14T03:05:17.849Z,101204.06
2022-10-14T03:07:45.166Z,101216.53
2022-10-14T03:10:15.124Z,101214.00
2022-10-14T03:12:42.595Z,101218.56
2022-10-14T03:15:18.980Z,101204.91
2022-10-14T03:17:47.529Z,101217.53
2022-10-14T03:20:20.882Z,101214.00
2022-10-14T03:22:52.231Z,101219.41
2022-10-14T03:25:19.558Z,101213.16
2022-10-14T03:27:57.954Z,101206.91
2022-10-14T03:30:37.166Z,101210.47
2022-10-14T03:33:14.337Z,101211.31
2022-10-14T03:36:17.641Z,101217.53
2022-10-14T03:38:47.867Z,101215.97
2022-10-14T03:41:41.154Z,101214.16
2022-10-14T03:44:11.095Z,101203.47
2022-10-14T03:46:43.303Z,101207.88
2022-10-14T03:49:12.347Z,101202.50
2022-10-14T03:51:39.910Z,101196.13
2022-10-14T03:54:14.787Z,101195.38
2022-10-14T03:56:42.260Z,101186.44
2022-10-14T03:59:09.747Z,101198.06
2022-10-14T04:01:44.461Z,101205.19
2022-10-14T04:04:20.837Z,101193.69
2022-10-14T04:06:48.096Z,101200.75
2022-10-14T04:09:18.121Z,101203.47
2022-10-14T04:11:45.452Z,101194.53
2022-10-14T04:14:30.326Z,101199.91
2022-10-14T04:16:59.190Z,101196.38
2022-10-14T04:19:28.114Z,101191.81
2022-10-14T04:21:55.389Z,101194.69
2022-10-14T04:24:24.737Z,101190.13
2022-10-14T04:26:57.562Z,101195.53
2022-10-14T04:29:37.842Z,101198.22
2022-10-14T04:32:12.230Z,101189.28
2022-10-14T04:34:40.026Z,101189.28
2022-10-14T04:37:08.946Z,101188.44
2022-10-14T04:40:01.096Z,101202.75
2022-10-14T04:42:30.257Z,101209.16
2022-10-14T04:45:02.130Z,101200.06
2022-10-14T04:47:52.143Z,101189.41
2022-10-14T04:50:22.896Z,101191.25
2022-10-14T04:53:13.222Z,101193.09
2022-10-14T04:55:50.108Z,101199.34
2022-10-14T04:58:17.959Z,101196.66
2022-10-14T05:00:50.770Z,101188.72
2022-10-14T05:03:31.837Z,101193.81
2022-10-14T05:05:59.755Z,101182.31
2022-10-14T05:08:27.279Z,101191.25
2022-10-14T05:10:56.983Z,101182.47
2022-10-14T05:13:36.652Z,101185.16
2022-10-14T05:16:09.103Z,101185.16
2022-10-14T05:18:36.510Z,101184.31
2022-10-14T05:21:10.195Z,101183.47
2022-10-14T05:24:00.480Z,101180.78
2022-10-14T05:26:31.650Z,101186.16
2022-10-14T05:29:02.211Z,101181.75
2022-10-14T05:31:30.435Z,101190.69
2022-10-14T05:34:17.982Z,101185.28
2022-10-14T05:36:46.060Z,101187.97
2022-10-14T05:39:13.617Z,101186.16
2022-10-14T05:41:40.930Z,101195.22
2022-10-14T05:44:10.874Z,101193.53
2022-10-14T05:46:39.283Z,101188.97
2022-10-14T05:49:06.931Z,101189.97
2022-10-14T05:51:38.208Z,101198.91
2022-10-14T05:54:13.999Z,101198.91
2022-10-14T05:56:43.457Z,101199.06
2022-10-14T05:59:11.273Z,101202.63
2022-10-14T06:01:40.485Z,101197.22
2022-10-14T06:04:08.256Z,101199.91
2022-10-14T06:06:35.530Z,101195.53
2022-10-14T06:09:04.025Z,101193.69
2022-10-14T06:11:33.923Z,101198.22
2022-10-14T06:14:01.177Z,101202.75
2022-10-14T06:16:28.489Z,101202.63
2022-10-14T06:18:56.214Z,101198.22
2022-10-14T06:21:23.694Z,101202.63
2022-10-14T06:23:51.039Z,101204.47
2022-10-14T06:26:18.326Z,101204.47
2022-10-14T06:28:46.413Z,101200.91
2022-10-14T06:31:13.907Z,101204.47
2022-10-14T06:33:43.582Z,101204.47
2022-10-14T06:36:11.921Z,101209.97
2022-10-14T06:38:39.521Z,101220.63
2022-10-14T06:41:07.025Z,101216.09
2022-10-14T06:43:35.345Z,101217.09
2022-10-14T06:46:04.772Z,101218.78
2022-10-14T06:48:32.135Z,101218.91
2022-10-14T06:51:01.346Z,101228.72
2022-10-14T06:53:29.522Z,101223.47
2022-10-14T06:56:02.076Z,101227.88
2022-10-14T06:58:30.505Z,101224.19
2022-10-14T07:01:03.353Z,101224.19
2022-10-14T07:03:31.282Z,101225.88
2022-10-14T07:05:58.592Z,101227.72
2022-10-14T07:08:25.900Z,101234.13
2022-10-14T07:10:53.224Z,101225.31
2022-10-14T07:13:20.553Z,101228.84
2022-10-14T07:15:50.192Z,101223.59
2022-10-14T07:18:20.380Z,101222.19
2022-10-14T07:20:47.788Z,101223.59
2022-10-14T07:23:15.172Z,101226.00
2022-10-14T07:25:42.898Z,101225.56
2022-10-14T07:28:10.231Z,101225.84
2022-10-14T07:30:38.014Z,101227.09
2022-10-14T07:33:05.346Z,101238.16
2022-10-14T07:35:32.814Z,101238.28
2022-10-14T07:38:00.495Z,101230.31
2022-10-14T07:40:27.967Z,101236.59
2022-10-14T07:42:55.170Z,101242.84
2022-10-14T07:45:22.495Z,101241.97
2022-10-14T07:47:51.075Z,101245.63
2022-10-14T07:50:20.507Z,101243.94
2022-10-14T07:52:47.794Z,101244.09
2022-10-14T07:55:15.006Z,101248.47
2022-10-14T07:57:42.350Z,101257.41
2022-10-14T08:00:10.337Z,101254.72
2022-10-14T08:02:40.564Z,101261.81
2022-10-14T08:05:33.093Z,101260.69
2022-10-14T08:07:55.175Z,101262.41
2022-10-14T08:10:22.526Z,101270.34
2022-10-14T08:12:50.955Z,101266.66
2022-10-14T08:15:18.263Z,101269.09
2022-10-14T08:17:45.620Z,101266.25
2022-10-14T08:20:13.097Z,101259.88
2022-10-14T08:22:40.389Z,101253.47
2022-10-14T08:25:08.016Z,101259.59
2022-10-14T08:27:35.373Z,101260.44
2022-10-14T08:30:07.346Z,101256.75
2022-10-14T08:32:38.710Z,101260.44
2022-10-14T08:35:06.577Z,101259.34
2022-10-14T08:37:33.878Z,101248.56
2022-10-14T08:40:01.212Z,101252.94
2022-10-14T08:43:00.099Z,101250.09
2022-10-14T08:45:37.750Z,101250.94
2022-10-14T08:48:17.443Z,101250.09
2022-10-14T08:50:49.326Z,101261.72
2022-10-14T08:53:22.606Z,101267.84
2022-10-14T08:55:55.621Z,101257.06
2022-10-14T08:58:22.888Z,101266.00
2022-10-14T09:00:52.227Z,101256.91
2022-10-14T09:03:33.285Z,101252.38
2022-10-14T09:06:06.980Z,101252.53
2022-10-14T09:08:42.090Z,101259.63
2022-10-14T09:11:33.609Z,101258.66
2022-10-14T09:14:02.713Z,101256.91
2022-10-14T09:16:34.782Z,101263.03
2022-10-14T09:19:05.442Z,101259.50
2022-10-14T09:21:52.263Z,101266.59
2022-10-14T09:24:27.236Z,101256.78
2022-10-14T09:27:16.407Z,101260.19
2022-10-14T09:29:50.026Z,101258.34
2022-10-14T09:32:41.132Z,101256.50
2022-10-14T09:35:31.665Z,101267.44
2022-10-14T09:37:59.470Z,101269.84
2022-10-14T09:40:30.201Z,101263.63
2022-10-14T09:43:03.050Z,101259.06
2022-10-14T09:45:53.413Z,101260.06
2022-10-14T09:48:40.447Z,101258.22
2022-10-14T09:51:11.034Z,101260.91
2022-10-14T09:53:45.274Z,101257.22
2022-10-14T09:56:13.341Z,101259.91
2022-10-14T09:58:52.411Z,101257.22
2022-10-14T10:01:22.556Z,101257.94
2022-10-14T10:03:51.756Z,101246.44
2022-10-14T10:06:22.733Z,101253.69
2022-10-14T10:08:56.019Z,101248.28
2022-10-14T10:11:38.054Z,101244.59
2022-10-14T10:14:33.030Z,101232.97
2022-10-14T10:17:12.861Z,101236.50
2022-10-14T10:19:45.759Z,101234.66
2022-10-14T10:25:12.339Z,101228.41
2022-10-14T10:27:47.937Z,101227.56
2022-10-14T10:30:18.592Z,101219.50
2022-10-14T10:33:10.760Z,101223.03
2022-10-14T10:35:56.083Z,101220.34
2022-10-14T10:38:31.086Z,101221.19
2022-10-14T10:41:06.860Z,101228.41
2022-10-14T10:43:53.585Z,101218.50
2022-10-14T10:46:29.914Z,101225.72
2022-10-14T10:49:43.667Z,101221.06
2022-10-14T10:52:44.943Z,101218.50
2022-10-14T10:55:27.386Z,101219.34
2022-10-14T10:57:57.497Z,101225.72
2022-10-14T11:03:10.489Z,101208.56
2022-10-14T11:06:03.016Z,101204.00
2022-10-14T11:08:54.648Z,101204.16
2022-10-14T11:11:46.652Z,101202.19
2022-10-14T11:14:41.113Z,101202.19
2022-10-14T11:17:23.496Z,101193.22
2022-10-14T11:20:05.627Z,101189.69
2022-10-14T11:22:41.914Z,101187.84
2022-10-14T11:25:22.673Z,101178.91
2022-10-14T11:27:54.042Z,101176.94
2022-10-14T11:30:44.646Z,101170.69
2022-10-14T11:33:37.469Z,101170.69
2022-10-14T11:36:18.829Z,101161.75
2022-10-14T11:38:58.442Z,101157.22
2022-10-14T11:41:42.650Z,101156.38
2022-10-14T11:44:32.624Z,101142.88
2022-10-14T11:47:05.778Z,101148.28
2022-10-14T11:49:47.710Z,101137.50
2022-10-14T11:52:22.154Z,101143.84
2022-10-14T11:54:55.593Z,101144.69
2022-10-14T11:57:30.185Z,101133.06
2022-10-14T12:00:14.450Z,101129.41
2022-10-14T12:02:56.951Z,101130.25
2022-10-14T12:05:33.821Z,101131.94
2022-10-14T12:08:30.401Z,101138.19
2022-10-14T12:11:16.717Z,101135.50
2022-10-14T12:13:54.289Z,101130.09
2022-10-14T12:16:24.108Z,101132.78
2022-10-14T12:18:55.929Z,101132.78
2022-10-14T12:21:39.542Z,101129.25
2022-10-14T12:24:17.006Z,101118.47
2022-10-14T12:27:04.767Z,101115.78
2022-10-14T12:29:36.547Z,101122.88
2022-10-14T12:32:03.751Z,101111.22
2022-10-14T12:34:35.323Z,101114.94
2022-10-14T12:37:27.395Z,101116.63
2022-10-14T12:40:05.517Z,101112.22
2022-10-14T12:42:38.960Z,101116.63
2022-10-14T12:45:24.670Z,101108.69
2022-10-14T12:48:02.671Z,101103.16
2022-10-14T12:50:41.355Z,101108.53
2022-10-14T12:53:21.564Z,101099.59
2022-10-14T12:56:04.310Z,101090.66
2022-10-14T12:58:33.875Z,101088.81
2022-10-14T13:01:17.743Z,101079.03
2022-10-14T13:06:39.091Z,101076.19
2022-10-14T13:09:12.376Z,101082.56
2022-10-14T13:11:41.504Z,101068.09
2022-10-14T13:14:27.204Z,101073.50
2022-10-14T13:16:59.944Z,101057.31
2022-10-14T13:19:33.419Z,101059.16
2022-10-14T13:22:04.681Z,101051.06
2022-10-14T13:24:39.316Z,101048.38
2022-10-14T13:27:14.415Z,101050.06
2022-10-14T13:30:00.881Z,101051.94
2022-10-14T13:32:51.529Z,101046.53
2022-10-14T13:35:27.496Z,101050.22
2022-10-14T13:38:11.695Z,101043.84
2022-10-14T13:40:48.695Z,101037.59
2022-10-14T13:43:21.338Z,101033.22
2022-10-14T13:45:52.959Z,101038.44
2022-10-14T13:48:43.798Z,101046.53
2022-10-14T13:51:36.982Z,101050.06
2022-10-14T13:54:14.059Z,101034.91
2022-10-14T13:56:41.396Z,101042.00
2022-10-14T13:59:43.909Z,101037.44
2022-10-14T14:02:30.134Z,101040.13
2022-10-14T14:04:59.582Z,101044.84
2022-10-14T14:08:14.151Z,101037.44
2022-10-14T14:10:25.418Z,101047.38
2022-10-14T14:12:53.052Z,101036.59
2022-10-14T14:15:29.230Z,101031.22
2022-10-14T14:17:56.498Z,101024.97
2022-10-14T14:20:33.939Z,101023.97
2022-10-14T14:23:01.344Z,101024.97
2022-10-14T14:25:35.683Z,101016.88
2022-10-14T14:28:15.200Z,101018.72
2022-10-14T14:30:53.390Z,101023.28
2022-10-14T14:33:40.022Z,101021.28
2022-10-14T14:36:22.270Z,101011.66
2022-10-14T14:39:01.251Z,101013.34
2022-10-14T14:41:30.489Z,101006.09
2022-10-14T14:44:24.459Z,101014.19
2022-10-14T14:46:56.904Z,101010.63
2022-10-14T14:49:37.112Z,101007.94
2022-10-14T14:52:06.192Z,101010.47
2022-10-14T14:54:33.521Z,101009.63
2022-10-14T14:57:04.001Z,101006.81
2022-10-14T14:59:43.503Z,101013.19
2022-10-14T15:02:23.133Z,101009.63
2022-10-14T15:05:07.265Z,101009.50
2022-10-14T15:07:35.874Z,101006.09
2022-10-14T15:10:07.260Z,101004.25
2022-10-14T15:12:42.452Z,100997.16
2022-10-14T15:15:26.660Z,101004.25
2022-10-14T15:18:15.714Z,101006.94
2022-10-14T15:20:43.460Z,100998.00
2022-10-14T15:23:41.842Z,100998.84
2022-10-14T15:26:21.733Z,100994.47
2022-10-14T15:29:10.339Z,100991.78
2022-10-14T15:31:39.711Z,100993.63
2022-10-14T15:34:16.757Z,100993.63
2022-10-14T15:36:44.309Z,100993.75
2022-10-14T15:39:14.662Z,100995.47
2022-10-14T15:41:42.317Z,100999.00
2022-10-14T15:44:09.600Z,100999.00
2022-10-14T15:46:57.183Z,100998.16
2022-10-14T15:49:39.186Z,100995.47
2022-10-14T15:52:07.094Z,100994.63
2022-10-14T15:54:34.549Z,100991.94
2022-10-14T15:57:01.860Z,100994.63
2022-10-14T15:59:29.221Z,100998.16
2022-10-14T16:01:57.316Z,100992.91
2022-10-14T16:04:27.692Z,100992.91
2022-10-14T16:06:56.491Z,100985.81
2022-10-14T16:09:25.022Z,100985.66
2022-10-14T16:11:57.409Z,100991.22
2022-10-14T16:14:28.282Z,100989.22
2022-10-14T16:16:56.702Z,100994.63
2022-10-14T16:19:24.095Z,100994.63
2022-10-14T16:21:51.478Z,100996.44
2022-10-14T16:24:20.929Z,100990.94
2022-10-14T16:26:51.523Z,100994.47
2022-10-14T16:29:20.247Z,100997.31
2022-10-14T16:31:50.125Z,100998.16
2022-10-14T16:34:18.465Z,100992.78
2022-10-14T16:36:46.868Z,100999.00
2022-10-14T16:39:14.732Z,101000.72
2022-10-14T16:41:42.756Z,101000.88
2022-10-14T16:44:24.752Z,101003.41
2022-10-14T16:47:12.362Z,101006.25
2022-10-14T16:49:40.464Z,101006.25
2022-10-14T16:52:08.846Z,101004.41
2022-10-14T16:54:36.667Z,101010.78
2022-10-14T16:57:04.837Z,101012.50
2022-10-14T16:59:33.240Z,101012.50
2022-10-14T17:02:01.903Z,101017.72
2022-10-14T17:04:29.278Z,101015.03
2022-10-14T17:06:58.674Z,101014.19
2022-10-14T17:09:26.107Z,101017.88
2022-10-14T17:11:54.848Z,101023.00
2022-10-14T17:14:24.045Z,101015.03
2022-10-14T17:16:54.159Z,101029.34
2022-10-14T17:19:21.701Z,101025.81
2022-10-14T17:21:49.135Z,101030.34
2022-10-14T17:24:16.979Z,101032.06
2022-10-14T17:26:45.131Z,101043.56
2022-10-14T17:29:12.653Z,101045.53
2022-10-14T17:31:40.030Z,101052.66
2022-10-14T17:34:09.852Z,101045.53
2022-10-14T17:36:37.215Z,101056.31
2022-10-14T17:39:04.779Z,101056.19
2022-10-14T17:41:32.213Z,101053.50
2022-10-14T17:44:01.550Z,101059.72
2022-10-14T17:46:29.766Z,101061.59
2022-10-14T17:49:01.598Z,101059.72
2022-10-14T17:51:28.898Z,101057.03
2022-10-14T17:53:58.748Z,101058.72
2022-10-14T17:56:27.582Z,101058.72
2022-10-14T17:58:57.168Z,101066.81
2022-10-14T18:01:37.553Z,101071.22
2022-10-14T18:04:12.747Z,101073.91
2022-10-14T18:06:40.435Z,101072.06
2022-10-14T18:09:09.724Z,101078.31
2022-10-14T18:14:29.726Z,101071.22
2022-10-14T18:16:59.244Z,101080.13
2022-10-14T18:19:27.138Z,101080.03
2022-10-14T18:21:54.417Z,101078.16
2022-10-14T18:24:21.683Z,101073.78
2022-10-14T18:26:52.756Z,101079.00
2022-10-14T18:29:20.303Z,101074.47
2022-10-14T18:31:49.576Z,101087.09
2022-10-14T18:34:17.599Z,101078.16
2022-10-14T18:36:44.977Z,101080.72
2022-10-14T18:39:12.377Z,101080.72
2022-10-14T18:41:39.887Z,101082.56
2022-10-14T18:44:07.301Z,101080.72
2022-10-14T18:46:37.361Z,101089.66
2022-10-14T18:49:06.516Z,101086.81
2022-10-14T18:51:37.006Z,101085.13
2022-10-14T18:54:12.369Z,101083.28
2022-10-14T18:56:39.933Z,101082.44
2022-10-14T18:59:10.918Z,101092.22
2022-10-14T19:01:40.240Z,101084.25
2022-10-14T19:04:09.874Z,101087.66
2022-10-14T19:06:37.169Z,101088.53
2022-10-14T19:09:05.414Z,101085.97
2022-10-14T19:11:34.491Z,101092.22
2022-10-14T19:14:04.095Z,101099.31
2022-10-14T19:16:34.103Z,101091.22
2022-10-14T19:19:16.781Z,101087.66
2022-10-14T19:21:46.146Z,101089.38
2022-10-14T19:24:14.421Z,101093.06
2022-10-14T19:26:44.461Z,101097.44
2022-10-14T19:29:13.661Z,101091.22
2022-10-14T19:31:41.912Z,101084.81
2022-10-14T19:34:12.106Z,101085.81
2022-10-14T19:36:40.131Z,101095.75
2022-10-14T19:39:09.364Z,101082.28
2022-10-14T19:41:42.749Z,101085.81
2022-10-14T19:44:11.869Z,101080.44
2022-10-14T19:46:39.529Z,101088.53
2022-10-14T19:49:06.825Z,101093.91
2022-10-14T19:51:35.442Z,101098.47
2022-10-14T19:54:03.252Z,101099.31
2022-10-14T19:56:30.917Z,101097.44
2022-10-14T19:58:59.203Z,101092.91
2022-10-14T20:01:28.754Z,101100.03
2022-10-14T20:03:56.699Z,101101.00
2022-10-14T20:06:24.287Z,101099.16
2022-10-14T20:08:51.579Z,101097.34
2022-10-14T20:11:22.399Z,101095.50
2022-10-14T20:13:49.996Z,101098.22
2022-10-14T20:16:17.658Z,101097.34
2022-10-14T20:18:45.039Z,101097.34
2022-10-14T20:21:15.010Z,101096.44
2022-10-14T20:23:43.207Z,101097.34
2022-10-14T20:26:19.752Z,101099.06
2022-10-14T20:28:48.161Z,101101.75
2022-10-14T20:31:21.910Z,101097.34
2022-10-14T20:33:49.550Z,101106.16
2022-10-14T20:36:19.741Z,101108.00
2022-10-14T20:38:47.713Z,101103.44
2022-10-14T20:41:21.555Z,101105.28
2022-10-14T20:43:49.660Z,101100.75
2022-10-14T20:46:17.200Z,101100.75
2022-10-14T20:48:44.738Z,101099.91
2022-10-14T20:51:18.066Z,101096.19
2022-10-14T20:53:45.302Z,101101.59
2022-10-14T20:56:13.537Z,101102.59
2022-10-14T20:58:41.308Z,101091.66
2022-10-14T21:01:14.712Z,101093.50
2022-10-14T21:03:44.167Z,101096.19
2022-10-14T21:06:18.169Z,101092.50
2022-10-14T21:08:45.887Z,101095.34
2022-10-14T21:11:15.741Z,101097.06
2022-10-14T21:13:49.218Z,101097.06
2022-10-14T21:16:21.593Z,101089.97
2022-10-14T21:18:55.108Z,101092.66
2022-10-14T21:21:27.114Z,101099.75
2022-10-14T21:23:55.468Z,101098.06
2022-10-14T21:26:22.894Z,101099.91
2022-10-14T21:28:50.189Z,101102.72
2022-10-14T21:31:19.266Z,101101.75
2022-10-14T21:33:47.950Z,101099.06
2022-10-14T21:36:16.710Z,101105.41
2022-10-14T21:38:44.142Z,101110.81
2022-10-14T21:41:11.984Z,101105.41
2022-10-14T21:43:39.766Z,101112.63
2022-10-14T21:46:10.259Z,101113.50
2022-10-14T21:48:37.907Z,101105.41
2022-10-14T21:51:10.357Z,101108.13
2022-10-14T21:53:38.728Z,101119.88
2022-10-14T21:56:06.507Z,101118.03
2022-10-14T21:58:34.541Z,101116.31
2022-10-14T22:01:08.018Z,101114.47
2022-10-14T22:03:36.674Z,101113.63
2022-10-14T22:06:10.276Z,101110.94
2022-10-14T22:08:40.022Z,101112.78
2022-10-14T22:11:14.358Z,101102.00
2022-10-14T22:13:41.597Z,101114.63
2022-10-14T22:16:08.927Z,101118.19
2022-10-14T22:18:36.158Z,101110.09
2022-10-14T22:21:06.681Z,101112.94
2022-10-14T22:23:34.579Z,101109.25
2022-10-14T22:26:03.142Z,101108.41
2022-10-14T22:28:31.755Z,101116.47
2022-10-14T22:31:09.637Z,101111.09
2022-10-14T22:33:38.321Z,101110.25
2022-10-14T22:36:12.385Z,101111.09
2022-10-14T22:38:42.078Z,101104.84
2022-10-14T22:41:11.496Z,101104.97
2022-10-14T22:43:39.367Z,101102.16
2022-10-14T22:46:10.178Z,101104.00
2022-10-14T22:48:37.912Z,101104.84
2022-10-14T22:51:11.253Z,101104.97
2022-10-14T22:53:40.796Z,101104.97
2022-10-14T22:56:10.756Z,101116.59
2022-10-14T22:58:38.050Z,101104.13
2022-10-14T23:01:16.586Z,101109.53
2022-10-14T23:03:44.361Z,101110.38
2022-10-14T23:06:13.472Z,101117.47
2022-10-14T23:08:41.212Z,101114.91
2022-10-14T23:11:12.765Z,101120.31
2022-10-14T23:13:40.146Z,101114.91
2022-10-14T23:16:10.221Z,101114.91
2022-10-14T23:18:38.330Z,101110.38
2022-10-14T23:21:41.994Z,101121.16
2022-10-14T23:24:11.343Z,101114.91
2022-10-14T23:26:38.734Z,101108.66
2022-10-14T23:29:09.906Z,101110.53
2022-10-14T23:31:39.195Z,101112.38
2022-10-14T23:34:10.996Z,101115.06
2022-10-14T23:36:38.569Z,101106.97
2022-10-14T23:39:06.181Z,101112.38
2022-10-14T23:41:33.593Z,101117.75
2022-10-14T23:44:00.991Z,101120.47
2022-10-14T23:46:28.248Z,101120.47
2022-10-14T23:49:06.576Z,101121.47
2022-10-14T23:51:41.675Z,101112.38
2022-10-14T23:54:09.034Z,101106.25
2022-10-14T23:56:36.290Z,101099.88
2022-10-14T23:59:03.565Z,101108.81
